Home > Products > Valid Products > TAF

000
FTUS46 KSEW 220500
TAFPAE
TAF
KPAE 220528Z 2206/2306 VRB03KT P6SM SCT120 BKN250
     FM221000 18006KT P6SM OVC002
      TEMPO 2212/2215 3SM BR
     FM221700 18006KT P6SM OVC006
     FM221900 21008KT P6SM OVC011
     FM222100 21008KT P6SM SCT012 OVC022
     FM230000 VRB03KT P6SM SCT020 OVC035=



000
FTUS46 KSEW 220500
TAFBLI
TAF
KBLI 220528Z 2206/2306 18008KT P6SM SCT250
     FM221300 18008KT P6SM OVC009
     FM221700 18008KT P6SM OVC015
     FM222000 18012KT P6SM SCT015 OVC025
     FM222300 18012KT P6SM SCT020 BKN040=



000
FTUS46 KSEW 220500
TAFOLM
TAF
KOLM 220528Z 2206/2306 21004KT P6SM SCT120 BKN250
     FM220900 21004KT P6SM OVC009
     FM221700 22008KT P6SM OVC014
     FM222100 22008KT P6SM SCT015 OVC025
     FM230000 22008KT P6SM SCT025 OVC035=



000
FTUS46 KSEW 220500
TAFHQM
TAF
KHQM 220528Z 2206/2306 25006KT 5SM BR OVC006
     FM221800 23008KT P6SM OVC012
     FM222200 23012KT P6SM OVC022
     FM230400 23012KT P6SM OVC012=



000
FTUS46 KSEW 220500
TAFSEA
TAF
KSEA 220528Z 2206/2312 22008KT P6SM BKN120 BKN250
     FM220900 22008KT P6SM OVC004
     FM221700 22008KT P6SM OVC008
     FM221900 22008KT P6SM OVC012
     FM222200 22008KT P6SM SCT012 OVC022
     FM230100 22008KT P6SM SCT022 OVC035
     FM230600 22008KT P6SM OVC012=



000
FTUS46 KSEW 220500
TAFCLM
TAF
KCLM 220528Z 2206/2306 28008KT P6SM OVC003
     FM221700 28008KT P6SM OVC006
     FM222000 28008KT P6SM BKN015 BKN030
     FM222200 28008KT P6SM SCT025 BKN045=



000
FTUS46 KSEW 220500
TAFBFI
TAF
KBFI 220528Z 2206/2306 20008KT P6SM BKN120 BKN250
     FM220900 20008KT P6SM OVC008
     FM221700 20008KT P6SM OVC014
     FM222200 20008KT P6SM SCT015 OVC025
     FM230100 20008KT P6SM SCT025 OVC040=



000
FTUS46 KSEW 220500
TAFOLM
TAF
KOLM 220528Z 2206/2306 21004KT P6SM SCT120 BKN250
     FM220900 21004KT P6SM OVC009
     FM221700 22008KT P6SM OVC014
     FM222100 22008KT P6SM SCT015 OVC025
     FM230000 22008KT P6SM SCT025 OVC035=



000
FTUS46 KSEW 220500
TAFHQM
TAF
KHQM 220528Z 2206/2306 25006KT 5SM BR OVC006
     FM221800 23008KT P6SM OVC012
     FM222200 23012KT P6SM OVC022
     FM230400 23012KT P6SM OVC012=



000
FTUS46 KSEW 220500
TAFBLI
TAF
KBLI 220528Z 2206/2306 18008KT P6SM SCT250
     FM221300 18008KT P6SM OVC009
     FM221700 18008KT P6SM OVC015
     FM222000 18012KT P6SM SCT015 OVC025
     FM222300 18012KT P6SM SCT020 BKN040=



000
FTUS46 KSEW 220500
TAFPAE
TAF
KPAE 220528Z 2206/2306 VRB03KT P6SM SCT120 BKN250
     FM221000 18006KT P6SM OVC002
      TEMPO 2212/2215 3SM BR
     FM221700 18006KT P6SM OVC006
     FM221900 21008KT P6SM OVC011
     FM222100 21008KT P6SM SCT012 OVC022
     FM230000 VRB03KT P6SM SCT020 OVC035=



000
FTUS46 KSEW 220500
TAFSEA
TAF
KSEA 220528Z 2206/2312 22008KT P6SM BKN120 BKN250
     FM220900 22008KT P6SM OVC004
     FM221700 22008KT P6SM OVC008
     FM221900 22008KT P6SM OVC012
     FM222200 22008KT P6SM SCT012 OVC022
     FM230100 22008KT P6SM SCT022 OVC035
     FM230600 22008KT P6SM OVC012=



000
FTUS46 KSEW 220500
TAFBFI
TAF
KBFI 220528Z 2206/2306 20008KT P6SM BKN120 BKN250
     FM220900 20008KT P6SM OVC008
     FM221700 20008KT P6SM OVC014
     FM222200 20008KT P6SM SCT015 OVC025
     FM230100 20008KT P6SM SCT025 OVC040=



000
FTUS46 KSEW 220500
TAFCLM
TAF
KCLM 220528Z 2206/2306 28008KT P6SM OVC003
     FM221700 28008KT P6SM OVC006
     FM222000 28008KT P6SM BKN015 BKN030
     FM222200 28008KT P6SM SCT025 BKN045=



000
FTUS46 KSEW 220400 AAA
TAFCLM
TAF AMD
KCLM 220445Z 2205/2224 28012KT P6SM BKN003 BKN120
     FM220900 28008KT P6SM OVC003
     FM221700 28008KT P6SM OVC006
     FM222000 28008KT P6SM BKN015 BKN030=



000
FTUS46 KSEW 220300 AAA
TAFSEA
TAF AMD
KSEA 220325Z 2203/2306 20006KT P6SM FEW050 SCT110 BKN250
     FM221000 20006KT P6SM SCT017 BKN110 BKN250
     FM221200 20006KT P6SM OVC009
     FM221800 23009KT P6SM OVC015
     FM222000 23012KT P6SM BKN025 BKN060 PROB30 2220/2224 -SHRA
     FM230000 21008KT P6SM SCT035 BKN060 PROB30 2300/2306 -SHRA=



000
FTUS46 KSEW 220300 AAA
TAFSEA
TAF AMD
KSEA 220325Z 2203/2306 20006KT P6SM FEW050 SCT110 BKN250
     FM221000 20006KT P6SM SCT017 BKN110 BKN250
     FM221200 20006KT P6SM OVC009
     FM221800 23009KT P6SM OVC015
     FM222000 23012KT P6SM BKN025 BKN060 PROB30 2220/2224 -SHRA
     FM230000 21008KT P6SM SCT035 BKN060 PROB30 2300/2306 -SHRA=



000
FTUS46 KSEW 212300
TAFHQM
TAF
KHQM 212329Z 2200/2224 25006KT 5SM BR OVC006 PROB30 2212/2218 2SM
      -DZ BR OVC004
     FM221800 23008KT P6SM OVC012
     FM222000 23013KT P6SM OVC022=



000
FTUS46 KSEW 212300
TAFCLM
TAF
KCLM 212329Z 2200/2224 28012KT P6SM VCTS FEW050CB SCT110 OVC250
     FM220600 28009KT P6SM SCT025 SCT110 BKN250
     FM221000 28009KT P6SM OVC020
     FM221200 28007KT P6SM OVC011
     FM221800 31010KT P6SM BKN020 BKN110 BKN250
     FM222000 31010KT P6SM FEW030 SCT110 BKN250=



000
FTUS46 KSEW 212300
TAFBFI
TAF
KBFI 212329Z 2200/2224 VRB05KT P6SM FEW050 SCT110 BKN250
     FM221000 19004KT P6SM SCT022 BKN110 BKN250
     FM221200 19004KT P6SM OVC015
     FM222000 20008KT P6SM BKN029 BKN060 PROB30 2220/2224 -SHRA=



000
FTUS46 KSEW 212300
TAFSEA
TAF
KSEA 212329Z 2200/2306 20006KT P6SM FEW050 SCT110 BKN250
     FM221000 20006KT P6SM SCT017 BKN110 BKN250
     FM221200 20006KT P6SM OVC009
     FM221800 23009KT P6SM OVC015
     FM222000 23012KT P6SM BKN025 BKN060 PROB30 2220/2224 -SHRA
     FM230000 21008KT P6SM SCT035 BKN060 PROB30 2300/2306 -SHRA=



000
FTUS46 KSEW 212300
TAFBLI
TAF
KBLI 212329Z 2200/2224 19005KT P6SM SCT110 BKN250
     FM221200 17007KT P6SM SCT018 BKN110 BKN250
     FM221500 17012KT P6SM OVC011
     FM222000 17012G20KT P6SM BKN022 BKN110
     FM222100 17012G20KT P6SM SCT035 SCT060 BKN110=



000
FTUS46 KSEW 212300
TAFBFI
TAF
KBFI 212329Z 2200/2224 VRB05KT P6SM FEW050 SCT110 BKN250
     FM221000 19004KT P6SM SCT022 BKN110 BKN250
     FM221200 19004KT P6SM OVC015
     FM222000 20008KT P6SM BKN029 BKN060 PROB30 2220/2224 -SHRA=



000
FTUS46 KSEW 212300
TAFPAE
TAF
KPAE 212329Z 2200/2224 30008KT P6SM FEW050 SCT110 BKN250
     FM220300 VRB03KT P6SM SCT110 BKN250
     FM220900 17005KT P6SM BKN015 BKN110 BKN250
     FM221200 19006KT P6SM OVC007 PROB30 2212/2218 4SM -DZ BR
     FM221800 21009KT P6SM OVC012
     FM222000 21009KT P6SM OVC022 PROB30 2220/2224 -SHRA=



000
FTUS46 KSEW 212300
TAFPAE
TAF
KPAE 212329Z 2200/2224 30008KT P6SM FEW050 SCT110 BKN250
     FM220300 VRB03KT P6SM SCT110 BKN250
     FM220900 17005KT P6SM BKN015 BKN110 BKN250
     FM221200 19006KT P6SM OVC007 PROB30 2212/2218 4SM -DZ BR
     FM221800 21009KT P6SM OVC012
     FM222000 21009KT P6SM OVC022 PROB30 2220/2224 -SHRA=



000
FTUS46 KSEW 212300
TAFOLM
TAF
KOLM 212329Z 2200/2224 25006KT P6SM FEW050 SCT110 BKN250
     FM220600 20004KT P6SM SCT022 BKN110 BKN250
     FM220900 20004KT P6SM OVC011
     FM221800 22008KT P6SM OVC020
     FM222100 22008KT P6SM BKN028 BKN060 BKN110=



000
FTUS46 KSEW 212300
TAFOLM
TAF
KOLM 212329Z 2200/2224 25006KT P6SM FEW050 SCT110 BKN250
     FM220600 20004KT P6SM SCT022 BKN110 BKN250
     FM220900 20004KT P6SM OVC011
     FM221800 22008KT P6SM OVC020
     FM222100 22008KT P6SM BKN028 BKN060 BKN110=



000
FTUS46 KSEW 212300
TAFHQM
TAF
KHQM 212329Z 2200/2224 25006KT 5SM BR OVC006 PROB30 2212/2218 2SM
      -DZ BR OVC004
     FM221800 23008KT P6SM OVC012
     FM222000 23013KT P6SM OVC022=



000
FTUS46 KSEW 212300
TAFCLM
TAF
KCLM 212329Z 2200/2224 28012KT P6SM VCTS FEW050CB SCT110 OVC250
     FM220600 28009KT P6SM SCT025 SCT110 BKN250
     FM221000 28009KT P6SM OVC020
     FM221200 28007KT P6SM OVC011
     FM221800 31010KT P6SM BKN020 BKN110 BKN250
     FM222000 31010KT P6SM FEW030 SCT110 BKN250=



000
FTUS46 KSEW 212300
TAFSEA
TAF
KSEA 212329Z 2200/2306 20006KT P6SM FEW050 SCT110 BKN250
     FM221000 20006KT P6SM SCT017 BKN110 BKN250
     FM221200 20006KT P6SM OVC009
     FM221800 23009KT P6SM OVC015
     FM222000 23012KT P6SM BKN025 BKN060 PROB30 2220/2224 -SHRA
     FM230000 21008KT P6SM SCT035 BKN060 PROB30 2300/2306 -SHRA=



000
FTUS46 KSEW 212300
TAFBLI
TAF
KBLI 212329Z 2200/2224 19005KT P6SM SCT110 BKN250
     FM221200 17007KT P6SM SCT018 BKN110 BKN250
     FM221500 17012KT P6SM OVC011
     FM222000 17012G20KT P6SM BKN022 BKN110
     FM222100 17012G20KT P6SM SCT035 SCT060 BKN110=



000
FTUS46 KSEW 212100 AAA
TAFSEA
TAF AMD
KSEA 212113Z 2121/2224 27009KT P6SM FEW050 SCT110 BKN250
     FM220300 24005KT P6SM FEW050 BKN110 BKN250
     FM220600 21005KT P6SM FEW025 BKN110 BKN250
     FM221000 21006KT P6SM BKN017 BKN110 BKN250
     FM221200 21006KT P6SM OVC009 PROB30 2212/2218 -SHRA
     FM221800 23012KT P6SM OVC015 PROB30 2218/2224 -SHRA=



000
FTUS46 KSEW 212100 AAA
TAFSEA
TAF AMD
KSEA 212113Z 2121/2224 27009KT P6SM FEW050 SCT110 BKN250
     FM220300 24005KT P6SM FEW050 BKN110 BKN250
     FM220600 21005KT P6SM FEW025 BKN110 BKN250
     FM221000 21006KT P6SM BKN017 BKN110 BKN250
     FM221200 21006KT P6SM OVC009 PROB30 2212/2218 -SHRA
     FM221800 23012KT P6SM OVC015 PROB30 2218/2224 -SHRA=



000
FTUS46 KSEW 212000 AAB
TAFHQM
TAF AMD
KHQM 212002Z 2120/2218 23011KT 6SM BR OVC009
     FM212200 23014KT P6SM OVC011
     FM220300 23007KT 5SM BR OVC007 PROB30 2212/2218 2SM -DZ BR
      OVC004=



000
FTUS46 KSEW 212000 AAB
TAFHQM
TAF AMD
KHQM 212002Z 2120/2218 23011KT 6SM BR OVC009
     FM212200 23014KT P6SM OVC011
     FM220300 23007KT 5SM BR OVC007 PROB30 2212/2218 2SM -DZ BR
      OVC004=



000
FTUS46 KSEW 211800 AAA
TAFCLM
TAF AMD
KCLM 211804Z 2118/2218 35006KT P6SM FEW050 FEW110 BKN250
     FM212100 32008KT P6SM VCTS FEW050CB SCT110 BKN250
     FM220100 28012KT P6SM VCTS FEW050CB BKN110 BKN250
     FM220600 28009KT P6SM FEW025 BKN110 BKN250
     FM220900 28009KT P6SM OVC020 PROB30 2209/2212 -SHRA
     FM221200 28007KT P6SM OVC011=



000
FTUS46 KSEW 211800 AAA
TAFHQM
TAF AMD
KHQM 211804Z 2118/2218 23009KT 5SM BR OVC005
     FM212000 23014KT P6SM OVC010
     FM220300 23007KT 5SM BR OVC007 PROB30 2212/2218 2SM -DZ BR
      OVC004=



000
FTUS46 KSEW 211800 AAA
TAFOLM
TAF AMD
KOLM 211804Z 2118/2218 21005KT P6SM FEW009 SCT110 BKN250
     FM212000 25006KT P6SM FEW050 SCT110 BKN250
     FM220000 25006KT P6SM VCSH SCT050 BKN110 BKN250
     FM220600 20004KT P6SM SCT022 BKN110 BKN250
     FM220900 20004KT P6SM OVC012=



000
FTUS46 KSEW 211800 AAA
TAFCLM
TAF AMD
KCLM 211804Z 2118/2218 35006KT P6SM FEW050 FEW110 BKN250
     FM212100 32008KT P6SM VCTS FEW050CB SCT110 BKN250
     FM220100 28012KT P6SM VCTS FEW050CB BKN110 BKN250
     FM220600 28009KT P6SM FEW025 BKN110 BKN250
     FM220900 28009KT P6SM OVC020 PROB30 2209/2212 -SHRA
     FM221200 28007KT P6SM OVC011=



000
FTUS46 KSEW 211800 AAA
TAFOLM
TAF AMD
KOLM 211804Z 2118/2218 21005KT P6SM FEW009 SCT110 BKN250
     FM212000 25006KT P6SM FEW050 SCT110 BKN250
     FM220000 25006KT P6SM VCSH SCT050 BKN110 BKN250
     FM220600 20004KT P6SM SCT022 BKN110 BKN250
     FM220900 20004KT P6SM OVC012=



000
FTUS46 KSEW 211800 AAA
TAFHQM
TAF AMD
KHQM 211804Z 2118/2218 23009KT 5SM BR OVC005
     FM212000 23014KT P6SM OVC010
     FM220300 23007KT 5SM BR OVC007 PROB30 2212/2218 2SM -DZ BR
      OVC004=



000
FTUS46 KSEW 211700 RRA
TAFCLM
TAF
KCLM 211741Z 2118/2218 VRB03KT P6SM SCT250
     FM212200 30008KT P6SM VCTS FEW050CB BKN250
     FM220400 28008KT P6SM SCT250
     FM220600 28008KT P6SM OVC004=



000
FTUS46 KSEW 211700 RRA
TAFBFI
TAF
KBFI 211741Z 2118/2218 30006KT P6SM FEW050 SCT110 BKN250
     FM220300 VRB03KT P6SM FEW050 BKN110 BKN250
     FM220600 VRB03KT P6SM FEW030 BKN110 BKN250
     FM221000 19005KT P6SM BKN022 BKN110 BKN250
     FM221200 19005KT P6SM OVC013 PROB30 2212/2218 -SHRA=



000
FTUS46 KSEW 211700 RRA
TAFOLM
TAF
KOLM 211741Z 2118/2218 VRB03KT P6SM FEW050 SCT120 BKN250
     FM220000 VRB03KT P6SM BKN070 OVC120
     FM220500 VRB03KT P6SM SCT120 BKN250
     FM221100 21008KT P6SM OVC004=



000
FTUS46 KSEW 211700 RRA
TAFPAE
TAF
KPAE 211741Z 2118/2218 30007KT P6SM FEW050 SCT110 BKN250
     FM220300 VRB03KT P6SM FEW050 SCT110 BKN250
     FM220600 VRB03KT P6SM FEW022 BKN110 BKN250
     FM221000 17005KT P6SM BKN015 BKN110 BKN250
     FM221200 19008KT P6SM OVC007 PROB30 2212/2218 -SHRA=



000
FTUS46 KSEW 211700 RRA
TAFHQM
TAF
KHQM 211741Z 2118/2218 22008KT 6SM BR OVC006
     FM212100 25010KT P6SM OVC012
     FM220300 25010KT P6SM OVC006
     FM220600 25006KT 5SM BR OVC004=



000
FTUS46 KSEW 211700 RRA
TAFBLI
TAF
KBLI 211741Z 2118/2218 19006KT P6SM FEW110 BKN250
     FM220300 17005KT P6SM SCT110 BKN250
     FM220900 17005KT P6SM BKN110 BKN250
     FM221200 17007KT P6SM SCT018 BKN110 BKN250
     FM221500 17012KT P6SM OVC010=



000
FTUS46 KSEW 211700 RRA
TAFSEA
TAF
KSEA 211741Z 2118/2224 27006KT P6SM FEW050 SCT110 BKN250
     FM220300 24005KT P6SM FEW050 BKN110 BKN250
     FM220600 21005KT P6SM FEW025 BKN110 BKN250
     FM221000 21006KT P6SM BKN017 BKN110 BKN250
     FM221200 21006KT P6SM OVC009 PROB30 2212/2218 -SHRA
     FM221800 23012KT P6SM OVC015 PROB30 2218/2224 -SHRA=



000
FTUS46 KSEW 211600 AAC
TAFOLM
TAF AMD
KOLM 211643Z 2117/2212 00000KT 4SM BR BKN004 BKN120 BKN250
     FM211800 VRB03KT P6SM FEW050 SCT120 BKN250
     FM220000 VRB03KT P6SM BKN070 OVC120
     FM220500 VRB03KT P6SM SCT120 BKN250
     FM221100 21008KT P6SM OVC004=



000
FTUS46 KSEW 211500 AAB
TAFOLM
TAF AMD
KOLM 211519Z 2115/2212 00000KT 1/4SM FG VV002
     FM211700 00000KT 2SM BR BKN004 BKN120 BKN250
     FM211800 VRB03KT P6SM FEW050 SCT120 BKN250
     FM220000 VRB03KT P6SM BKN070 OVC120
     FM220500 VRB03KT P6SM SCT120 BKN250
     FM221100 21008KT P6SM OVC004=



000
FTUS46 KSEW 211500 AAA
TAFBLI
TAF AMD
KBLI 211518Z 2115/2212 18006KT P6SM VCFG SCT004 SCT250
     FM211700 18006KT P6SM SCT250
     FM212300 22006KT P6SM FEW050 BKN250=



000
FTUS46 KSEW 211500 AAB
TAFPAE
TAF AMD
KPAE 211518Z 2115/2212 VRB03KT P6SM VCFG FEW002 FEW120 BKN250
     FM211700 31006KT P6SM FEW050 FEW120 BKN250
     FM212300 36006KT P6SM FEW050 BKN120 BKN250
     FM220600 VRB03KT P6SM SCT250
     FM221100 VRB03KT 1SM BR OVC002=



000
FTUS46 KSEW 211500 AAA
TAFBFI
TAF AMD
KBFI 211517Z 2115/2212 VRB03KT P6SM FEW050 FEW120 BKN250
     FM212200 28006KT P6SM FEW050 BKN120 BKN250
     FM220600 19006KT P6SM SCT120 BKN250
     FM221100 19006KT P6SM OVC009=



000
FTUS46 KSEW 211500 AAA
TAFSEA
TAF AMD
KSEA 211516Z 2115/2218 28005KT P6SM FEW050 FEW120 BKN250
     FM212200 26008KT P6SM FEW050 BKN120 BKN250
     FM220600 22008KT P6SM SCT120 BKN250
     FM221100 22008KT P6SM OVC004=



000
FTUS46 KSEW 211400 AAA
TAFHQM
TAF AMD
KHQM 211415Z 2114/2212 VRB03KT 4SM BR OVC003
      TEMPO 2114/2116 2SM BR
     FM211800 22008KT 6SM BR OVC006
     FM212100 25010KT P6SM OVC012
     FM220300 25010KT P6SM OVC006
     FM220600 25006KT 5SM BR OVC004=



000
FTUS46 KSEW 211400 AAA
TAFCLM
TAF AMD
KCLM 211414Z 2114/2212 VRB03KT 1/4SM FG VV002
     FM211600 VRB03KT 3SM BR SCT003 SCT250
     FM211700 VRB03KT P6SM SCT250
     FM212200 30008KT P6SM VCTS FEW050CB BKN250
     FM220400 28008KT P6SM SCT250
     FM220600 28008KT P6SM OVC004=



000
FTUS46 KSEW 211400 AAA
TAFPAE
TAF AMD
KPAE 211413Z 2114/2212 VRB03KT 5SM BR SCT001 SCT120 BKN250
      TEMPO 2114/2116 2SM BR BKN001
     FM211700 31006KT P6SM FEW050 BKN250
     FM212300 36006KT P6SM FEW050 BKN120 BKN250
     FM220600 VRB03KT P6SM SCT250
     FM221100 VRB03KT 1SM BR OVC002=



000
FTUS46 KSEW 211300 AAA
TAFOLM
TAF AMD
KOLM 211301Z 2113/2212 18003KT 1/4SM FG VV002
      TEMPO 2114/2116 1SM BR OVC002
     FM211600 00000KT 4SM BR BKN003
     FM211800 VRB03KT P6SM SCT120 BKN250
     FM220000 VRB03KT P6SM BKN070 OVC120
     FM220500 VRB03KT P6SM SCT120 BKN250
     FM221100 21008KT P6SM OVC004=



000
FTUS46 KSEW 211100
TAFHQM
TAF
KHQM 211138Z 2112/2212 VRB03KT 4SM BR OVC002
     FM211800 22008KT 6SM BR OVC006
     FM212100 25010KT P6SM OVC012
     FM220300 25010KT P6SM OVC006
     FM220600 25006KT 5SM BR OVC004=



000
FTUS46 KSEW 211100
TAFSEA
TAF
KSEA 211138Z 2112/2218 VRB03KT P6SM SCT250
     FM211300 VRB03KT P6SM BKN250
     FM212200 26008KT P6SM FEW050 BKN120 BKN250
     FM220600 22008KT P6SM SCT120 BKN250
     FM221100 22008KT P6SM OVC004=



000
FTUS46 KSEW 211100
TAFOLM
TAF
KOLM 211138Z 2112/2212 00000KT P6SM OVC004
     FM211400 00000KT 1SM BR OVC002
     FM211700 00000KT 4SM BR BKN003
     FM211800 VRB03KT P6SM SCT120 BKN250
     FM220000 VRB03KT P6SM BKN070 OVC120
     FM220500 VRB03KT P6SM SCT120 BKN250
     FM221100 21008KT P6SM OVC004=



000
FTUS46 KSEW 211100
TAFBFI
TAF
KBFI 211138Z 2112/2212 VRB03KT P6SM SCT250
     FM211700 VRB03KT P6SM BKN250
     FM212200 28006KT P6SM FEW050 BKN120 BKN250
     FM220600 19006KT P6SM SCT120 BKN250
     FM221100 19006KT P6SM OVC009=



000
FTUS46 KSEW 211100
TAFBLI
TAF
KBLI 211138Z 2112/2212 18006KT P6SM SCT003
      TEMPO 2114/2116 4SM BR BKN003
     FM211600 18006KT P6SM SCT250
     FM212300 22006KT P6SM FEW050 BKN250=



000
FTUS46 KSEW 211100
TAFPAE
TAF
KPAE 211138Z 2112/2212 VRB03KT P6SM SCT250
     FM211300 VRB03KT 1/4SM FG OVC001
      TEMPO 2115/2116 2SM BR BKN002
     FM211600 VRB03KT 4SM BR BKN003
     FM211700 31006KT P6SM FEW050 BKN250
     FM212300 36006KT P6SM FEW050 BKN120 BKN250
     FM220600 VRB03KT P6SM SCT250
     FM221100 VRB03KT 1SM BR OVC002=



000
FTUS46 KSEW 211100
TAFCLM
TAF
KCLM 211138Z 2112/2212 VRB03KT 1/4SM FG OVC001
     FM211500 VRB03KT 2SM BR OVC002
     FM211600 VRB03KT P6SM SCT250
     FM212200 30008KT P6SM VCTS FEW050CB BKN250
     FM220400 28008KT P6SM SCT250
     FM220600 28008KT P6SM OVC004=



000
FTUS46 KSEW 211100
TAFSEA
TAF
KSEA 211138Z 2112/2218 VRB03KT P6SM SCT250
     FM211300 VRB03KT P6SM BKN250
     FM212200 26008KT P6SM FEW050 BKN120 BKN250
     FM220600 22008KT P6SM SCT120 BKN250
     FM221100 22008KT P6SM OVC004=



000
FTUS46 KSEW 211100
TAFBFI
TAF
KBFI 211138Z 2112/2212 VRB03KT P6SM SCT250
     FM211700 VRB03KT P6SM BKN250
     FM212200 28006KT P6SM FEW050 BKN120 BKN250
     FM220600 19006KT P6SM SCT120 BKN250
     FM221100 19006KT P6SM OVC009=



000
FTUS46 KSEW 211100
TAFOLM
TAF
KOLM 211138Z 2112/2212 00000KT P6SM OVC004
     FM211400 00000KT 1SM BR OVC002
     FM211700 00000KT 4SM BR BKN003
     FM211800 VRB03KT P6SM SCT120 BKN250
     FM220000 VRB03KT P6SM BKN070 OVC120
     FM220500 VRB03KT P6SM SCT120 BKN250
     FM221100 21008KT P6SM OVC004=



000
FTUS46 KSEW 211100
TAFPAE
TAF
KPAE 211138Z 2112/2212 VRB03KT P6SM SCT250
     FM211300 VRB03KT 1/4SM FG OVC001
      TEMPO 2115/2116 2SM BR BKN002
     FM211600 VRB03KT 4SM BR BKN003
     FM211700 31006KT P6SM FEW050 BKN250
     FM212300 36006KT P6SM FEW050 BKN120 BKN250
     FM220600 VRB03KT P6SM SCT250
     FM221100 VRB03KT 1SM BR OVC002=



000
FTUS46 KSEW 211100
TAFCLM
TAF
KCLM 211138Z 2112/2212 VRB03KT 1/4SM FG OVC001
     FM211500 VRB03KT 2SM BR OVC002
     FM211600 VRB03KT P6SM SCT250
     FM212200 30008KT P6SM VCTS FEW050CB BKN250
     FM220400 28008KT P6SM SCT250
     FM220600 28008KT P6SM OVC004=



000
FTUS46 KSEW 211100
TAFBLI
TAF
KBLI 211138Z 2112/2212 18006KT P6SM SCT003
      TEMPO 2114/2116 4SM BR BKN003
     FM211600 18006KT P6SM SCT250
     FM212300 22006KT P6SM FEW050 BKN250=



000
FTUS46 KSEW 211100
TAFHQM
TAF
KHQM 211138Z 2112/2212 VRB03KT 4SM BR OVC002
     FM211800 22008KT 6SM BR OVC006
     FM212100 25010KT P6SM OVC012
     FM220300 25010KT P6SM OVC006
     FM220600 25006KT 5SM BR OVC004=



000
FTUS46 KSEW 210900 AAA
TAFSEA
TAF AMD
KSEA 210910Z 2109/2212 VRB03KT P6SM SCT250
     FM211300 VRB03KT P6SM VCFG SCT003 BKN250
     FM211700 24006KT P6SM BKN250
     FM212200 24008KT P6SM FEW050 BKN120 BKN250=



000
FTUS46 KSEW 210500
TAFHQM
TAF
KHQM 210525Z 2106/2206 VRB03KT 4SM BR OVC002
     FM211800 22008KT 6SM BR OVC006
     FM212100 25010KT P6SM OVC012
     FM220300 25010KT P6SM OVC006=



000
FTUS46 KSEW 210500
TAFOLM
TAF
KOLM 210525Z 2106/2206 VRB03KT P6SM SCT250
     FM211200 00000KT P6SM OVC006
     FM211800 VRB03KT P6SM SCT120 BKN250
     FM220000 VRB03KT P6SM -SHRA BKN070 OVC120=



000
FTUS46 KSEW 210500
TAFCLM
TAF
KCLM 210525Z 2106/2206 28006KT 5SM BR BKN001
      TEMPO 2106/2108 1SM BR
     FM210800 VRB03KT 1/2SM FG OVC001
     FM211500 VRB03KT 4SM BR OVC002
     FM211600 VRB03KT P6SM SCT250
     FM212200 33008KT P6SM VCTS FEW050CB BKN250=



000
FTUS46 KSEW 210500
TAFPAE
TAF
KPAE 210525Z 2106/2206 VRB03KT P6SM SCT250
     FM211200 VRB03KT 1/4SM FG OVC001
      TEMPO 2115/2116 2SM BR BKN002
     FM211600 VRB03KT 4SM BR BKN003
     FM211700 31006KT P6SM FEW050 BKN250
     FM212300 36006KT P6SM FEW050 BKN120 BKN250=



000
FTUS46 KSEW 210500
TAFBLI
TAF
KBLI 210525Z 2106/2206 18006KT P6SM SCT250
     FM212300 22006KT P6SM FEW050 BKN120 BKN250=



000
FTUS46 KSEW 210500
TAFBFI
TAF
KBFI 210525Z 2106/2206 VRB03KT P6SM SCT250
     FM211300 VRB03KT P6SM SCT007 BKN250
     FM211700 21006KT P6SM BKN250
     FM212200 21006KT P6SM FEW050 BKN120 BKN250=



000
FTUS46 KSEW 210500
TAFBFI
TAF
KBFI 210525Z 2106/2206 VRB03KT P6SM SCT250
     FM211300 VRB03KT P6SM SCT007 BKN250
     FM211700 21006KT P6SM BKN250
     FM212200 21006KT P6SM FEW050 BKN120 BKN250=



000
FTUS46 KSEW 210500
TAFSEA
TAF
KSEA 210525Z 2106/2212 VRB03KT P6SM SCT250
     FM211300 VRB03KT P6SM VCFG SCT003 BKN250
     FM211700 24006KT P6SM BKN250
     FM212200 24008KT P6SM FEW050 BKN120 BKN250=



000
FTUS46 KSEW 210500
TAFBLI
TAF
KBLI 210525Z 2106/2206 18006KT P6SM SCT250
     FM212300 22006KT P6SM FEW050 BKN120 BKN250=



000
FTUS46 KSEW 210500
TAFSEA
TAF
KSEA 210525Z 2106/2212 VRB03KT P6SM SCT250
     FM211300 VRB03KT P6SM VCFG SCT003 BKN250
     FM211700 24006KT P6SM BKN250
     FM212200 24008KT P6SM FEW050 BKN120 BKN250=



000
FTUS46 KSEW 210500
TAFPAE
TAF
KPAE 210525Z 2106/2206 VRB03KT P6SM SCT250
     FM211200 VRB03KT 1/4SM FG OVC001
      TEMPO 2115/2116 2SM BR BKN002
     FM211600 VRB03KT 4SM BR BKN003
     FM211700 31006KT P6SM FEW050 BKN250
     FM212300 36006KT P6SM FEW050 BKN120 BKN250=



000
FTUS46 KSEW 210500
TAFOLM
TAF
KOLM 210525Z 2106/2206 VRB03KT P6SM SCT250
     FM211200 00000KT P6SM OVC006
     FM211800 VRB03KT P6SM SCT120 BKN250
     FM220000 VRB03KT P6SM -SHRA BKN070 OVC120=



000
FTUS46 KSEW 210500
TAFCLM
TAF
KCLM 210525Z 2106/2206 28006KT 5SM BR BKN001
      TEMPO 2106/2108 1SM BR
     FM210800 VRB03KT 1/2SM FG OVC001
     FM211500 VRB03KT 4SM BR OVC002
     FM211600 VRB03KT P6SM SCT250
     FM212200 33008KT P6SM VCTS FEW050CB BKN250=



000
FTUS46 KSEW 210500
TAFHQM
TAF
KHQM 210525Z 2106/2206 VRB03KT 4SM BR OVC002
     FM211800 22008KT 6SM BR OVC006
     FM212100 25010KT P6SM OVC012
     FM220300 25010KT P6SM OVC006=



000
FTUS46 KSEW 210500 AAA
TAFCLM
TAF AMD
KCLM 210506Z 2105/2124 28006KT 5SM BR BKN001
      TEMPO 2105/2108 1SM BR
     FM210800 VRB03KT 1/2SM FG OVC001
     FM211500 VRB03KT 4SM BR OVC002
     FM211600 VRB03KT P6SM VCFG FEW002 SCT250
     FM211800 33008KT P6SM VCTS FEW050CB BKN250=



000
FTUS46 KSEW 210500 AAA
TAFCLM
TAF AMD
KCLM 210506Z 2105/2124 28006KT 5SM BR BKN001
      TEMPO 2105/2108 1SM BR
     FM210800 VRB03KT 1/2SM FG OVC001
     FM211500 VRB03KT 4SM BR OVC002
     FM211600 VRB03KT P6SM VCFG FEW002 SCT250
     FM211800 33008KT P6SM VCTS FEW050CB BKN250=



000
FTUS46 KSEW 210300 AAA
TAFSEA
TAF AMD
KSEA 210301Z 2103/2206 VRB03KT P6SM FEW050 SCT250
     FM211200 VRB03KT P6SM VCFG SCT003 BKN250
     FM211800 28006KT P6SM FEW050 BKN250
     FM212100 31008KT P6SM FEW050 SCT120 BKN250
     FM220300 24008KT P6SM FEW050 BKN120 BKN250=



000
FTUS46 KSEW 202300
TAFPAE
TAF
KPAE 202320Z 2100/2124 01005KT P6SM SCT250
     FM210300 VRB03KT P6SM SCT250
     FM211200 VRB03KT P6SM BCFG SCT002 SCT250
      TEMPO 2112/2116 2SM BR BKN002
     FM211800 31006KT P6SM FEW050 BKN250=



000
FTUS46 KSEW 202300
TAFCLM
TAF
KCLM 202320Z 2100/2124 28006KT P6SM VCSH FEW050 BKN250
     FM210300 28006KT P6SM BKN250
     FM210600 VRB03KT P6SM SCT250
     FM211200 VRB03KT P6SM VCFG FEW002 SCT250
     FM211800 33008KT P6SM VCTS FEW050CB BKN250=



000
FTUS46 KSEW 202300
TAFBFI
TAF
KBFI 202320Z 2100/2124 31005KT P6SM FEW050 SCT250
     FM210300 VRB03KT P6SM SCT250
     FM211200 VRB03KT P6SM VCFG SCT007 BKN250
     FM211800 30006KT P6SM FEW050 BKN250
     FM212100 30006KT P6SM FEW050 SCT120 BKN250=



000
FTUS46 KSEW 202300
TAFSEA
TAF
KSEA 202320Z 2100/2206 28005KT P6SM FEW050 SCT250
     FM210400 32005KT P6SM SCT250
     FM211200 VRB03KT P6SM VCFG SCT003 BKN250
     FM211800 28006KT P6SM FEW050 BKN250
     FM212100 31008KT P6SM FEW050 SCT120 BKN250
     FM220300 24008KT P6SM FEW050 BKN120 BKN250=



000
FTUS46 KSEW 202300
TAFOLM
TAF
KOLM 202320Z 2100/2124 VRB03KT P6SM SCT250
     FM210900 00000KT 3SM BR FEW008 BKN250
     FM211200 00000KT 5SM BR SCT004 SCT120 BKN250
      TEMPO 2112/2116 3SM BR BKN004 BKN120 BKN250
     FM211800 28005KT P6SM FEW050 SCT120 BKN250=



000
FTUS46 KSEW 202300
TAFBLI
TAF
KBLI 202320Z 2100/2124 VRB03KT P6SM SKC
     FM211200 VRB03KT P6SM VCFG FEW003
     FM211800 19007KT P6SM FEW050 SCT250=



000
FTUS46 KSEW 202300
TAFOLM
TAF
KOLM 202320Z 2100/2124 VRB03KT P6SM SCT250
     FM210900 00000KT 3SM BR FEW008 BKN250
     FM211200 00000KT 5SM BR SCT004 SCT120 BKN250
      TEMPO 2112/2116 3SM BR BKN004 BKN120 BKN250
     FM211800 28005KT P6SM FEW050 SCT120 BKN250=



000
FTUS46 KSEW 202300
TAFHQM
TAF
KHQM 202320Z 2100/2124 24010KT P6SM VCFG SCT008 SCT250
      TEMPO 2100/2103 BKN008 BKN250
     FM210300 26005KT 5SM BR OVC008
     FM210600 VRB03KT 4SM BR OVC004
     FM211800 21007KT 6SM BR OVC007
     FM212100 24013KT P6SM OVC012=



000
FTUS46 KSEW 202300
TAFBLI
TAF
KBLI 202320Z 2100/2124 VRB03KT P6SM SKC
     FM211200 VRB03KT P6SM VCFG FEW003
     FM211800 19007KT P6SM FEW050 SCT250=



000
FTUS46 KSEW 202300
TAFHQM
TAF
KHQM 202320Z 2100/2124 24010KT P6SM VCFG SCT008 SCT250
      TEMPO 2100/2103 BKN008 BKN250
     FM210300 26005KT 5SM BR OVC008
     FM210600 VRB03KT 4SM BR OVC004
     FM211800 21007KT 6SM BR OVC007
     FM212100 24013KT P6SM OVC012=



000
FTUS46 KSEW 202300
TAFCLM
TAF
KCLM 202320Z 2100/2124 28006KT P6SM VCSH FEW050 BKN250
     FM210300 28006KT P6SM BKN250
     FM210600 VRB03KT P6SM SCT250
     FM211200 VRB03KT P6SM VCFG FEW002 SCT250
     FM211800 33008KT P6SM VCTS FEW050CB BKN250=



000
FTUS46 KSEW 202300
TAFPAE
TAF
KPAE 202320Z 2100/2124 01005KT P6SM SCT250
     FM210300 VRB03KT P6SM SCT250
     FM211200 VRB03KT P6SM BCFG SCT002 SCT250
      TEMPO 2112/2116 2SM BR BKN002
     FM211800 31006KT P6SM FEW050 BKN250=



000
FTUS46 KSEW 202300
TAFBFI
TAF
KBFI 202320Z 2100/2124 31005KT P6SM FEW050 SCT250
     FM210300 VRB03KT P6SM SCT250
     FM211200 VRB03KT P6SM VCFG SCT007 BKN250
     FM211800 30006KT P6SM FEW050 BKN250
     FM212100 30006KT P6SM FEW050 SCT120 BKN250=



000
FTUS46 KSEW 202300
TAFSEA
TAF
KSEA 202320Z 2100/2206 28005KT P6SM FEW050 SCT250
     FM210400 32005KT P6SM SCT250
     FM211200 VRB03KT P6SM VCFG SCT003 BKN250
     FM211800 28006KT P6SM FEW050 BKN250
     FM212100 31008KT P6SM FEW050 SCT120 BKN250
     FM220300 24008KT P6SM FEW050 BKN120 BKN250=



000
FTUS46 KSEW 202200 AAD
TAFHQM
TAF AMD
KHQM 202208Z 2022/2118 23010KT P6SM SCT008
      TEMPO 2022/2102 BKN008
     FM210200 25005KT 6SM BR OVC008
     FM210600 VRB03KT 4SM BR OVC005=



000
FTUS46 KSEW 202100 AAC
TAFHQM
TAF AMD
KHQM 202107Z 2021/2118 20007KT P6SM BKN012
     FM202200 24010KT P6SM SCT015
     FM210300 VRB03KT P6SM OVC008
     FM210600 VRB03KT 4SM BR OVC005=



000
FTUS46 KSEW 202100 AAC
TAFSEA
TAF AMD
KSEA 202107Z 2021/2124 30007KT P6SM SCT250
     FM210400 36005KT P6SM SCT250
     FM211200 VRB03KT P6SM VCFG SCT004 BKN250
     FM211800 28007KT P6SM FEW050 BKN250=



000
FTUS46 KSEW 202000 AAB
TAFHQM
TAF AMD
KHQM 202013Z 2020/2118 20007KT 6SM BR BKN009
     FM202200 24010KT P6SM SCT015
     FM210300 VRB03KT P6SM OVC008
     FM210600 VRB03KT 4SM BR OVC005=



000
FTUS46 KSEW 202000 AAC
TAFOLM
TAF AMD
KOLM 202011Z 2020/2118 02005KT P6SM SCT017
      TEMPO 2020/2021 BKN017
     FM202100 02007KT P6SM SCT250
     FM210300 VRB03KT P6SM BKN250
     FM210900 00000KT 4SM BR FEW003 BKN250=



000
FTUS46 KSEW 202000 AAC
TAFOLM
TAF AMD
KOLM 202011Z 2020/2118 02005KT P6SM SCT017
      TEMPO 2020/2021 BKN017
     FM202100 02007KT P6SM SCT250
     FM210300 VRB03KT P6SM BKN250
     FM210900 00000KT 4SM BR FEW003 BKN250=



000
FTUS46 KSEW 201900 AAA
TAFBFI
TAF AMD
KBFI 201951Z 2020/2118 32007KT P6SM SCT015
      TEMPO 2020/2021 BKN015
     FM202100 32007KT P6SM SKC
     FM210300 02005KT P6SM SCT250
     FM211200 VRB03KT P6SM VCFG SCT008 BKN250=



000
FTUS46 KSEW 201900 AAB
TAFSEA
TAF AMD
KSEA 201950Z 2020/2124 28005KT P6SM BKN012
     FM202100 32008KT P6SM SKC
     FM210400 02005KT P6SM SCT250
     FM211200 VRB03KT P6SM VCFG SCT004 BKN250
     FM211800 28007KT P6SM FEW050 BKN250=



000
FTUS46 KSEW 201900 AAB
TAFOLM
TAF AMD
KOLM 201923Z 2019/2118 02005KT P6SM BKN012
     FM202100 02007KT P6SM SCT250
     FM210300 VRB03KT P6SM BKN250
     FM210900 00000KT 4SM BR FEW003 BKN250=



000
FTUS46 KSEW 201900 AAA
TAFSEA
TAF AMD
KSEA 201922Z 2019/2124 30005KT P6SM BKN009
     FM202030 33009KT P6SM SKC
     FM210400 02005KT P6SM SCT250
     FM211200 VRB03KT P6SM VCFG SCT004 BKN250
     FM211800 28007KT P6SM FEW050 BKN250=



000
FTUS46 KSEW 201800 AAA
TAFHQM
TAF AMD
KHQM 201806Z 2018/2118 VRB03KT 5SM BR OVC006
     FM202000 24010KT P6SM OVC009
     FM202300 24010KT P6SM BKN011
     FM210300 VRB03KT P6SM OVC008
     FM210600 VRB03KT 4SM BR OVC005=



000
FTUS46 KSEW 201800 AAA
TAFOLM
TAF AMD
KOLM 201801Z 2018/2118 VRB05KT P6SM OVC009
     FM202000 02005KT P6SM BKN012
     FM202100 02007KT P6SM SCT250
     FM210300 VRB03KT P6SM BKN250
     FM210900 00000KT 4SM BR FEW003 BKN250=



000
FTUS46 KSEW 201800 AAA
TAFOLM
TAF AMD
KOLM 201801Z 2018/2118 VRB05KT P6SM OVC009
     FM202000 02005KT P6SM BKN012
     FM202100 02007KT P6SM SCT250
     FM210300 VRB03KT P6SM BKN250
     FM210900 00000KT 4SM BR FEW003 BKN250=



000
FTUS46 KSEW 201700 RRA
TAFOLM
TAF
KOLM 201741Z 2018/2118 VRB05KT P6SM OVC005
     FM202000 02005KT P6SM BKN009
     FM202100 02007KT P6SM SCT250
     FM210300 VRB03KT P6SM BKN250
     FM210900 00000KT 4SM BR FEW003 BKN250=



000
FTUS46 KSEW 201700 RRA
TAFCLM
TAF
KCLM 201741Z 2018/2118 35007KT P6SM VCFG FEW009
     FM201900 35007KT P6SM SCT250
     FM210200 28007KT P6SM SCT250
     FM210600 VRB03KT P6SM SKC
     FM211200 VRB03KT P6SM VCFG SKC=



000
FTUS46 KSEW 201700 RRA
TAFPAE
TAF
KPAE 201741Z 2018/2118 VRB03KT 1SM BR OVC003
     FM201900 35005KT 4SM BR BKN006
     FM202000 32007KT P6SM SKC
     FM210300 VRB03KT P6SM SKC
     FM211200 VRB03KT 2SM BR SCT002 SCT250
      TEMPO 2112/2116 1/2SM FG VV002=



000
FTUS46 KSEW 201700 RRA
TAFSEA
TAF
KSEA 201741Z 2018/2124 29005KT 4SM BR OVC004
      TEMPO 2018/2019 2SM BR
     FM201900 31005KT 6SM BR HZ BKN007
     FM202000 33009KT P6SM SKC
     FM210400 02005KT P6SM SCT250
     FM211200 VRB03KT P6SM VCFG SCT004 BKN250
     FM211800 28007KT P6SM FEW050 BKN250=



000
FTUS46 KSEW 201700 RRA
TAFHQM
TAF
KHQM 201741Z 2018/2118 VRB03KT 5SM BR OVC006
     FM201900 26006KT P6SM OVC009
     FM202100 26006KT P6SM OVC011
     FM202300 26006KT P6SM SCT020
     FM210400 26006KT P6SM OVC011=



000
FTUS46 KSEW 201700 RRA
TAFBLI
TAF
KBLI 201741Z 2018/2118 17007KT 6SM BR BKN004
      TEMPO 2018/2019 2SM BR
     FM201900 19007KT P6SM VCFG FEW007
     FM202000 21007KT P6SM SKC
     FM210300 VRB03KT P6SM SKC
     FM211200 VRB03KT P6SM VCFG FEW003=



000
FTUS46 KSEW 201700 RRA
TAFBFI
TAF
KBFI 201741Z 2018/2118 VRB03KT P6SM VCFG OVC009
     FM201900 29005KT P6SM BKN012
     FM202000 32007KT P6SM SKC
     FM210300 02005KT P6SM SCT250
     FM211200 VRB03KT P6SM VCFG SCT008 BKN250=



000
FTUS46 KSEW 201700 RRA
TAFCLM
TAF
KCLM 201741Z 2018/2118 35007KT P6SM VCFG FEW009
     FM201900 35007KT P6SM SCT250
     FM210200 28007KT P6SM SCT250
     FM210600 VRB03KT P6SM SKC
     FM211200 VRB03KT P6SM VCFG SKC=



000
FTUS46 KSEW 201700 RRA
TAFHQM
TAF
KHQM 201741Z 2018/2118 VRB03KT 5SM BR OVC006
     FM201900 26006KT P6SM OVC009
     FM202100 26006KT P6SM OVC011
     FM202300 26006KT P6SM SCT020
     FM210400 26006KT P6SM OVC011=



000
FTUS46 KSEW 201700 RRA
TAFPAE
TAF
KPAE 201741Z 2018/2118 VRB03KT 1SM BR OVC003
     FM201900 35005KT 4SM BR BKN006
     FM202000 32007KT P6SM SKC
     FM210300 VRB03KT P6SM SKC
     FM211200 VRB03KT 2SM BR SCT002 SCT250
      TEMPO 2112/2116 1/2SM FG VV002=



000
FTUS46 KSEW 201700 RRA
TAFSEA
TAF
KSEA 201741Z 2018/2124 29005KT 4SM BR OVC004
      TEMPO 2018/2019 2SM BR
     FM201900 31005KT 6SM BR HZ BKN007
     FM202000 33009KT P6SM SKC
     FM210400 02005KT P6SM SCT250
     FM211200 VRB03KT P6SM VCFG SCT004 BKN250
     FM211800 28007KT P6SM FEW050 BKN250=



000
FTUS46 KSEW 201700 RRA
TAFOLM
TAF
KOLM 201741Z 2018/2118 VRB05KT P6SM OVC005
     FM202000 02005KT P6SM BKN009
     FM202100 02007KT P6SM SCT250
     FM210300 VRB03KT P6SM BKN250
     FM210900 00000KT 4SM BR FEW003 BKN250=



000
FTUS46 KSEW 201700 RRA
TAFBLI
TAF
KBLI 201741Z 2018/2118 17007KT 6SM BR BKN004
      TEMPO 2018/2019 2SM BR
     FM201900 19007KT P6SM VCFG FEW007
     FM202000 21007KT P6SM SKC
     FM210300 VRB03KT P6SM SKC
     FM211200 VRB03KT P6SM VCFG FEW003=



000
FTUS46 KSEW 201700 RRA
TAFBFI
TAF
KBFI 201741Z 2018/2118 VRB03KT P6SM VCFG OVC009
     FM201900 29005KT P6SM BKN012
     FM202000 32007KT P6SM SKC
     FM210300 02005KT P6SM SCT250
     FM211200 VRB03KT P6SM VCFG SCT008 BKN250=



000
FTUS46 KSEW 201600 AAA
TAFPAE
TAF AMD
KPAE 201624Z 2016/2112 VRB03KT 1/4SM FG OVC001
     FM201800 VRB03KT 1SM BR OVC002
     FM201900 35006KT 5SM BR BKN004
     FM202000 35006KT P6SM SCT250=



000
FTUS46 KSEW 201500 AAC
TAFCLM
TAF AMD
KCLM 201529Z 2015/2112 31006KT P6SM OVC003
      TEMPO 2015/2017 2SM BR
     FM201800 29008KT P6SM SCT250=



000
FTUS46 KSEW 201500 AAB
TAFBLI
TAF AMD
KBLI 201521Z 2015/2112 17010KT 6SM BR OVC003
      TEMPO 2015/2017 2SM BR
     FM201800 19008KT P6SM BKN003
     FM201900 20008KT P6SM SCT250=



000
FTUS46 KSEW 201500 AAB
TAFBLI
TAF AMD
KBLI 201521Z 2015/2112 17010KT 6SM BR OVC003
      TEMPO 2015/2017 2SM BR
     FM201800 19008KT P6SM BKN003
     FM201900 20008KT P6SM SCT250=



000
FTUS46 KSEW 201500 AAD
TAFSEA
TAF AMD
KSEA 201520Z 2015/2118 00000KT 1/2SM FG VV002
     FM201700 VRB03KT 2SM BR OVC003
     FM201800 22005KT 6SM BR HZ OVC005
     FM201900 24006KT P6SM SCT250
     FM202100 35006KT P6SM SCT250=



000
FTUS46 KSEW 201500 AAB
TAFBFI
TAF AMD
KBFI 201520Z 2015/2112 VRB03KT 3SM BR OVC005
     FM201700 VRB03KT P6SM VCFG OVC007
     FM201900 VRB03KT P6SM SCT250
     FM202100 31006KT P6SM SCT250
     FM210600 VRB03KT P6SM SKC=



000
FTUS46 KSEW 201500 AAD
TAFSEA
TAF AMD
KSEA 201520Z 2015/2118 00000KT 1/2SM FG VV002
     FM201700 VRB03KT 2SM BR OVC003
     FM201800 22005KT 6SM BR HZ OVC005
     FM201900 24006KT P6SM SCT250
     FM202100 35006KT P6SM SCT250=



000
FTUS46 KSEW 201500 AAB
TAFBFI
TAF AMD
KBFI 201520Z 2015/2112 VRB03KT 3SM BR OVC005
     FM201700 VRB03KT P6SM VCFG OVC007
     FM201900 VRB03KT P6SM SCT250
     FM202100 31006KT P6SM SCT250
     FM210600 VRB03KT P6SM SKC=



000
FTUS46 KSEW 201400 AAC
TAFSEA
TAF AMD
KSEA 201411Z 2014/2118 00000KT 1/2SM FG VV002
     FM201600 VRB03KT 4SM BR OVC002
     FM201700 24006KT P6SM OVC005
     FM201900 24006KT P6SM SCT250
     FM202100 35006KT P6SM SCT250=



000
FTUS46 KSEW 201400 AAA
TAFBFI
TAF AMD
KBFI 201411Z 2014/2112 VRB03KT P6SM VCFG OVC005
     FM201700 VRB03KT P6SM OVC011
     FM201900 VRB03KT P6SM SCT250
     FM202100 31006KT P6SM SCT250
     FM210600 VRB03KT P6SM SKC=



000
FTUS46 KSEW 201400 AAC
TAFSEA
TAF AMD
KSEA 201411Z 2014/2118 00000KT 1/2SM FG VV002
     FM201600 VRB03KT 4SM BR OVC002
     FM201700 24006KT P6SM OVC005
     FM201900 24006KT P6SM SCT250
     FM202100 35006KT P6SM SCT250=



000
FTUS46 KSEW 201400 AAA
TAFBFI
TAF AMD
KBFI 201411Z 2014/2112 VRB03KT P6SM VCFG OVC005
     FM201700 VRB03KT P6SM OVC011
     FM201900 VRB03KT P6SM SCT250
     FM202100 31006KT P6SM SCT250
     FM210600 VRB03KT P6SM SKC=



000
FTUS46 KSEW 201400 AAA
TAFHQM
TAF AMD
KHQM 201410Z 2014/2112 VRB03KT 4SM BR OVC006
     FM201900 26006KT P6SM OVC009
     FM202100 26006KT P6SM OVC011
     FM202300 26006KT P6SM SCT020
     FM210400 26006KT P6SM OVC011=



000
FTUS46 KSEW 201400 AAB
TAFCLM
TAF AMD
KCLM 201409Z 2014/2112 29005KT 1/4SM FG VV002
     FM201600 26006KT 2SM BR OVC004
     FM201800 29008KT P6SM SCT250=



000
FTUS46 KSEW 201300 AAB
TAFSEA
TAF AMD
KSEA 201328Z 2013/2118 00000KT 1/4SM FG VV001
      TEMPO 2014/2016 3/4SM BR
     FM201600 VRB03KT 4SM BR OVC002
     FM201700 24006KT P6SM OVC005
     FM201900 24006KT P6SM SCT250
     FM202100 35006KT P6SM SCT250=



000
FTUS46 KSEW 201300 AAA
TAFCLM
TAF AMD
KCLM 201300Z 2013/2112 29005KT 3SM BR OVC002
      TEMPO 2013/2015 3/4SM BR
     FM201600 26006KT P6SM BKN006
     FM201800 29008KT P6SM SCT250=



000
FTUS46 KSEW 201200 AAA
TAFBLI
TAF AMD
KBLI 201259Z 2013/2112 17010KT P6SM OVC003
      TEMPO 2013/2015 4SM BR
     FM201600 16008KT P6SM OVC006
     FM201800 20008KT P6SM SCT250=



000
FTUS46 KSEW 201200 AAA
TAFSEA
TAF AMD
KSEA 201209Z 2012/2118 21004KT 4SM BR OVC002
      TEMPO 2012/2015 3/4SM BR
     FM201700 24006KT P6SM OVC006
     FM201900 24006KT P6SM SCT250
     FM202100 35006KT P6SM SCT250=



000
FTUS46 KSEW 201200 AAA
TAFSEA
TAF AMD
KSEA 201209Z 2012/2118 21004KT 4SM BR OVC002
      TEMPO 2012/2015 3/4SM BR
     FM201700 24006KT P6SM OVC006
     FM201900 24006KT P6SM SCT250
     FM202100 35006KT P6SM SCT250=



000
FTUS46 KSEW 201100
TAFPAE
TAF
KPAE 201130Z 2012/2112 VRB03KT 1/4SM FG OVC001
     FM201600 VRB03KT 1SM BR OVC002
     FM201800 35006KT P6SM SCT006
     FM201900 35006KT P6SM SCT250=



000
FTUS46 KSEW 201100
TAFOLM
TAF
KOLM 201130Z 2012/2112 VRB03KT P6SM OVC004
     FM201700 VRB03KT P6SM OVC008
     FM201900 VRB03KT P6SM BKN012
     FM202000 VRB03KT P6SM SCT250=



000
FTUS46 KSEW 201100
TAFHQM
TAF
KHQM 201130Z 2012/2112 26006KT 3SM BR OVC004
     FM201900 26006KT P6SM OVC009
     FM202100 26006KT P6SM OVC011
     FM202300 26006KT P6SM SCT020
     FM210400 26006KT P6SM OVC011=



000
FTUS46 KSEW 201100
TAFSEA
TAF
KSEA 201130Z 2012/2118 21004KT 4SM BR OVC002
     FM201700 24006KT P6SM OVC006
     FM201900 24006KT P6SM SCT250
     FM202100 35006KT P6SM SCT250=



000
FTUS46 KSEW 201100
TAFBFI
TAF
KBFI 201130Z 2012/2112 VRB03KT P6SM OVC006
     FM201700 VRB03KT P6SM OVC011
     FM201900 VRB03KT P6SM SCT250
     FM202100 31006KT P6SM SCT250
     FM210600 VRB03KT P6SM SKC=



000
FTUS46 KSEW 201100
TAFBLI
TAF
KBLI 201130Z 2012/2112 18008KT P6SM SCT250
     FM201400 18008KT P6SM OVC004
     FM201800 20008KT P6SM SCT250=



000
FTUS46 KSEW 201100
TAFCLM
TAF
KCLM 201130Z 2012/2112 29008KT 3SM BR OVC002
     FM201600 26006KT P6SM BKN006
     FM201800 29008KT P6SM SCT250=



000
FTUS46 KSEW 200800 AAA
TAFPAE
TAF AMD
KPAE 200833Z 2009/2106 VRB03KT 1/2SM FG OVC001
     FM201700 VRB03KT 3SM BR BKN004
     FM201800 35006KT P6SM SCT006
     FM201900 35006KT P6SM SCT250=



000
FTUS46 KSEW 200800 AAA
TAFBFI
TAF AMD
KBFI 200833Z 2009/2106 VRB03KT P6SM OVC009
     FM201600 VRB03KT P6SM OVC012
     FM201900 VRB03KT P6SM SCT250
     FM202100 31006KT P6SM SCT250=



000
FTUS46 KSEW 200800 AAA
TAFSEA
TAF AMD
KSEA 200833Z 2009/2112 21004KT P6SM OVC006
     FM201200 21004KT P6SM OVC004
     FM201600 24006KT P6SM OVC008
     FM201800 24006KT P6SM OVC011
     FM201900 24006KT P6SM SCT250
     FM202100 35006KT P6SM SCT250=



000
FTUS46 KSEW 200800 AAA
TAFPAE
TAF AMD
KPAE 200833Z 2009/2106 VRB03KT 1/2SM FG OVC001
     FM201700 VRB03KT 3SM BR BKN004
     FM201800 35006KT P6SM SCT006
     FM201900 35006KT P6SM SCT250=



000
FTUS46 KSEW 200800 AAA
TAFBFI
TAF AMD
KBFI 200833Z 2009/2106 VRB03KT P6SM OVC009
     FM201600 VRB03KT P6SM OVC012
     FM201900 VRB03KT P6SM SCT250
     FM202100 31006KT P6SM SCT250=



000
FTUS46 KSEW 200800 AAA
TAFSEA
TAF AMD
KSEA 200833Z 2009/2112 21004KT P6SM OVC006
     FM201200 21004KT P6SM OVC004
     FM201600 24006KT P6SM OVC008
     FM201800 24006KT P6SM OVC011
     FM201900 24006KT P6SM SCT250
     FM202100 35006KT P6SM SCT250=



000
FTUS46 KSEW 200500
TAFSEA
TAF
KSEA 200530Z 2006/2112 24006KT P6SM SCT250
     FM201200 21004KT P6SM OVC004
     FM201800 24006KT P6SM SCT250
     FM202100 35006KT P6SM SCT250=



000
FTUS46 KSEW 200500
TAFBLI
TAF
KBLI 200530Z 2006/2106 18008KT P6SM SCT250
     FM201400 18008KT P6SM OVC006
     FM201800 20008KT P6SM SCT250=



000
FTUS46 KSEW 200500
TAFCLM
TAF
KCLM 200530Z 2006/2106 29008KT P6SM OVC003
      TEMPO 2008/2012 3SM BR
     FM201600 26006KT P6SM BKN006
     FM201800 29008KT P6SM SCT250=



000
FTUS46 KSEW 200500
TAFOLM
TAF
KOLM 200530Z 2006/2106 19004KT P6SM SCT250
     FM200900 19004KT P6SM OVC008
     FM201800 VRB03KT P6SM BKN012
     FM201900 VRB03KT P6SM SCT250=



000
FTUS46 KSEW 200500
TAFPAE
TAF
KPAE 200530Z 2006/2106 VRB03KT P6SM SCT250
     FM201100 VRB03KT 5SM BR OVC002
      TEMPO 2011/2015 1SM BR
     FM201700 VRB03KT 5SM BR BKN004
     FM201800 35006KT P6SM SCT006
     FM201900 35006KT P6SM SCT250=



000
FTUS46 KSEW 200500
TAFHQM
TAF
KHQM 200530Z 2006/2106 26006KT 4SM BR OVC005
     FM201900 26006KT P6SM OVC009
     FM202100 26006KT P6SM OVC011
     FM202300 26006KT P6SM SCT020
     FM210400 26006KT P6SM OVC011=



000
FTUS46 KSEW 200500
TAFBFI
TAF
KBFI 200530Z 2006/2106 VRB03KT P6SM SCT250
     FM201200 VRB03KT P6SM OVC009
     FM201800 VRB03KT P6SM FEW012
     FM201900 31006KT P6SM SCT250=



000
FTUS46 KSEW 200300 AAA
TAFSEA
TAF AMD
KSEA 200302Z 2003/2106 24006KT P6SM FEW120 BKN250
     FM201200 21004KT P6SM OVC004
     FM201800 24006KT P6SM FEW008
     FM201900 33009KT P6SM FEW050 SCT250=



000
FTUS46 KSEW 192300 RRA
TAFCLM
TAF
KCLM 192342Z 2000/2024 29009KT P6SM VCSH FEW050 SCT120 BKN250
     FM200600 27006KT 2SM BR SCT004 SCT250
      TEMPO 2006/2008 3/4SM BR BKN004
     FM200800 27006KT 1/2SM FG VV002
     FM201500 30006KT 4SM BR BKN005
     FM201800 33008KT P6SM FEW050 SCT250=



000
FTUS46 KSEW 192300 RRA
TAFOLM
TAF
KOLM 192342Z 2000/2024 20006KT P6SM FEW035 FEW050 BKN250
     FM200300 VRB03KT P6SM FEW120 BKN250
     FM200700 VRB03KT P6SM SCT009 SCT250
     FM200900 VRB03KT P6SM OVC006
     FM201800 VRB03KT P6SM BKN010
     FM202000 35006KT P6SM FEW050 SCT250=



000
FTUS46 KSEW 192300 RRA
TAFPAE
TAF
KPAE 192342Z 2000/2024 30005KT P6SM FEW050 BKN250
     FM200300 VRB03KT P6SM FEW120 BKN250
     FM201200 VRB03KT 1/2SM FG VV002
     FM201700 VRB03KT 3SM BR BKN004
     FM201800 35005KT P6SM FEW007
     FM201900 32007KT P6SM FEW050 SCT250=



000
FTUS46 KSEW 192300 RRA
TAFHQM
TAF
KHQM 192342Z 2000/2024 25010KT P6SM OVC010
     FM200300 25005KT 4SM BR OVC007
     FM200800 VRB03KT 2SM BR OVC004
     FM201800 25006KT 6SM BR OVC008
     FM202000 25013KT P6SM SCT015
      TEMPO 2020/2022 BKN015=



000
FTUS46 KSEW 192300 RRA
TAFBFI
TAF
KBFI 192342Z 2000/2024 VRB03KT P6SM FEW050 BKN250
     FM200300 VRB03KT P6SM FEW120 BKN250
     FM201200 VRB03KT P6SM VCFG SCT009
     FM201400 VRB03KT P6SM BKN009
     FM201800 31005KT P6SM FEW012
     FM201900 31007KT P6SM FEW050 SCT250=



000
FTUS46 KSEW 192300 RRA
TAFBLI
TAF
KBLI 192342Z 2000/2024 17007KT P6SM FEW050 BKN250
     FM200200 17004KT P6SM FEW120 BKN250
     FM201200 VRB03KT P6SM VCFG FEW004
     FM201800 21006KT P6SM FEW050 SCT250=



000
FTUS46 KSEW 192300 RRA
TAFSEA
TAF
KSEA 192342Z 2000/2106 21006KT P6SM FEW050 BKN250
     FM200300 VRB03KT P6SM FEW120 BKN250
     FM201200 VRB03KT P6SM VCFG SCT005
     FM201400 VRB03KT P6SM VCFG BKN005
     FM201800 28006KT P6SM FEW008
     FM201900 33009KT P6SM FEW050 SCT250=



000
FTUS46 KSEW 192100 AAB
TAFBFI
TAF AMD
KBFI 192105Z 1921/2018 30005KT P6SM FEW030 FEW050 BKN250
     FM192300 30005KT P6SM FEW050 BKN250
     FM200300 VRB03KT P6SM SCT120 BKN250
     FM201200 VRB03KT P6SM VCFG OVC008=



000
FTUS46 KSEW 192100 AAB
TAFSEA
TAF AMD
KSEA 192104Z 1921/2024 29006KT P6SM FEW030 FEW050 BKN250
     FM200000 32006KT P6SM FEW050 SCT120 BKN250
     FM201200 VRB03KT P6SM VCFG OVC004
     FM201900 33008KT P6SM FEW050 SCT250=



000
FTUS46 KSEW 192100 AAB
TAFOLM
TAF AMD
KOLM 192103Z 1921/2018 26006KT P6SM SCT025 BKN250
      TEMPO 1921/1923 BKN025 BKN250
     FM192300 33006KT P6SM FEW050 BKN250
     FM200300 VRB03KT P6SM SCT120 BKN250
     FM200900 VRB03KT P6SM BKN010 BKN250
     FM201200 VRB03KT P6SM OVC006=



000
FTUS46 KSEW 192000 AAA
TAFHQM
TAF AMD
KHQM 192007Z 1920/2018 25013KT 5SM BR OVC009
     FM192200 25013KT P6SM OVC012
     FM200300 27006KT P6SM OVC012
     FM200600 VRB03KT 5SM BR OVC007
     FM201000 VRB03KT 2SM BR OVC004=



000
FTUS46 KSEW 192000 AAB
TAFBLI
TAF AMD
KBLI 192006Z 1920/2018 19010KT P6SM FEW050 SCT250
     FM200200 VRB04KT P6SM SCT120 BKN250=



000
FTUS46 KSEW 191900 AAA
TAFOLM
TAF AMD
KOLM 191910Z 1919/2018 24005KT P6SM OVC015
     FM192100 33006KT P6SM FEW020 SCT050 SCT250
     FM200300 VRB03KT P6SM SCT120 BKN250
     FM200900 VRB03KT P6SM BKN010 BKN250
     FM201200 VRB03KT P6SM OVC006=



000
FTUS46 KSEW 191900 AAA
TAFOLM
TAF AMD
KOLM 191910Z 1919/2018 24005KT P6SM OVC015
     FM192100 33006KT P6SM FEW020 SCT050 SCT250
     FM200300 VRB03KT P6SM SCT120 BKN250
     FM200900 VRB03KT P6SM BKN010 BKN250
     FM201200 VRB03KT P6SM OVC006=



000
FTUS46 KSEW 191900 AAA
TAFBLI
TAF AMD
KBLI 191909Z 1919/2018 19010KT P6SM FEW008
     FM192000 21006KT P6SM FEW050 SCT250
     FM200200 VRB04KT P6SM SCT120 BKN250=



000
FTUS46 KSEW 191900 AAA
TAFSEA
TAF AMD
KSEA 191908Z 1919/2024 22005KT P6SM BKN011
     FM192000 25006KT P6SM SCT015 SCT050
     FM192100 28006KT P6SM FEW050 SCT250
     FM200000 32006KT P6SM FEW050 SCT120 BKN250
     FM201200 VRB03KT P6SM VCFG OVC004
     FM201900 33008KT P6SM FEW050 SCT250=



000
FTUS46 KSEW 191900 AAA
TAFBFI
TAF AMD
KBFI 191908Z 1919/2018 21005KT P6SM BKN015
     FM192000 27005KT P6SM SCT020 SCT050
     FM192100 30005KT P6SM FEW050 SCT250
     FM200300 VRB03KT P6SM SCT120 BKN250
     FM201200 VRB03KT P6SM VCFG OVC008=



000
FTUS46 KSEW 191900 AAA
TAFBFI
TAF AMD
KBFI 191908Z 1919/2018 21005KT P6SM BKN015
     FM192000 27005KT P6SM SCT020 SCT050
     FM192100 30005KT P6SM FEW050 SCT250
     FM200300 VRB03KT P6SM SCT120 BKN250
     FM201200 VRB03KT P6SM VCFG OVC008=



000
FTUS46 KSEW 191900 AAA
TAFPAE
TAF AMD
KPAE 191906Z 1919/2018 25008KT P6SM SCT009
      TEMPO 1919/1920 BKN009
     FM192000 29006KT P6SM FEW015 FEW050
     FM192100 31006KT P6SM FEW050 SCT250
     FM200300 VRB03KT P6SM SCT120 BKN250
     FM201200 VRB03KT 1/2SM FG VV002=



000
FTUS46 KSEW 191900 AAA
TAFCLM
TAF AMD
KCLM 191905Z 1919/2018 32009KT P6SM SCT009
      TEMPO 1919/1920 BKN009
     FM192000 32009KT P6SM FEW050 SCT250
     FM200000 29009KT P6SM FEW050 SCT120 BKN250
     FM200600 27007KT P6SM SCT120 BKN250
     FM200900 27005KT 1/2SM FG VV002=



000
FTUS46 KSEW 191700
TAFBFI
TAF
KBFI 191740Z 1918/2018 VRB05KT P6SM OVC014
     FM192000 27005KT P6SM SCT020 SCT050
     FM192100 30005KT P6SM FEW050 SCT250
     FM200300 VRB03KT P6SM SCT120 BKN250
     FM201200 VRB03KT P6SM VCFG OVC008=



000
FTUS46 KSEW 191700
TAFCLM
TAF
KCLM 191740Z 1918/2018 32009KT P6SM BKN006
     FM191900 32009KT P6SM FEW011 FEW050
     FM192000 32009KT P6SM FEW050 SCT250
     FM200000 29009KT P6SM FEW050 SCT120 BKN250
     FM200600 27007KT P6SM SCT120 BKN250
     FM200900 27005KT 1/2SM FG VV002=



000
FTUS46 KSEW 191700
TAFSEA
TAF
KSEA 191740Z 1918/2024 22005KT P6SM OVC008
     FM191900 22005KT P6SM OVC010
     FM192000 25006KT P6SM SCT015 SCT050
     FM192100 28006KT P6SM FEW050 SCT250
     FM200000 32006KT P6SM FEW050 SCT120 BKN250
     FM201200 VRB03KT P6SM VCFG OVC004
     FM201900 33008KT P6SM FEW050 SCT250=



000
FTUS46 KSEW 191700
TAFPAE
TAF
KPAE 191740Z 1918/2018 VRB03KT P6SM OVC008
     FM191900 22005KT P6SM OVC010
     FM192000 26006KT P6SM SCT015 SCT050
     FM192100 31006KT P6SM FEW050 SCT250
     FM200300 VRB03KT P6SM SCT120 BKN250
     FM201200 VRB03KT 1/2SM FG VV002=



000
FTUS46 KSEW 191700
TAFHQM
TAF
KHQM 191740Z 1918/2018 27006KT 5SM BR OVC007
     FM192000 25013KT P6SM OVC012
     FM200300 27006KT P6SM OVC012
     FM200600 VRB03KT 5SM BR OVC007
     FM201000 VRB03KT 2SM BR OVC004=



000
FTUS46 KSEW 191700
TAFBLI
TAF
KBLI 191740Z 1918/2018 19010KT P6SM VCFG SCT007
      TEMPO 1918/1920 BKN007
     FM192000 21006KT P6SM FEW050 SCT250
     FM200200 VRB04KT P6SM SCT120 BKN250=



000
FTUS46 KSEW 191700
TAFOLM
TAF
KOLM 191740Z 1918/2018 VRB03KT P6SM OVC010
     FM192100 33006KT P6SM FEW020 SCT050 SCT250
     FM200300 VRB03KT P6SM SCT120 BKN250
     FM200900 VRB03KT P6SM BKN010 BKN250
     FM201200 VRB03KT P6SM OVC006=



000
FTUS46 KSEW 191700
TAFBLI
TAF
KBLI 191740Z 1918/2018 19010KT P6SM VCFG SCT007
      TEMPO 1918/1920 BKN007
     FM192000 21006KT P6SM FEW050 SCT250
     FM200200 VRB04KT P6SM SCT120 BKN250=



000
FTUS46 KSEW 191700
TAFCLM
TAF
KCLM 191740Z 1918/2018 32009KT P6SM BKN006
     FM191900 32009KT P6SM FEW011 FEW050
     FM192000 32009KT P6SM FEW050 SCT250
     FM200000 29009KT P6SM FEW050 SCT120 BKN250
     FM200600 27007KT P6SM SCT120 BKN250
     FM200900 27005KT 1/2SM FG VV002=



000
FTUS46 KSEW 191700
TAFBFI
TAF
KBFI 191740Z 1918/2018 VRB05KT P6SM OVC014
     FM192000 27005KT P6SM SCT020 SCT050
     FM192100 30005KT P6SM FEW050 SCT250
     FM200300 VRB03KT P6SM SCT120 BKN250
     FM201200 VRB03KT P6SM VCFG OVC008=



000
FTUS46 KSEW 191700
TAFHQM
TAF
KHQM 191740Z 1918/2018 27006KT 5SM BR OVC007
     FM192000 25013KT P6SM OVC012
     FM200300 27006KT P6SM OVC012
     FM200600 VRB03KT 5SM BR OVC007
     FM201000 VRB03KT 2SM BR OVC004=



000
FTUS46 KSEW 191700
TAFSEA
TAF
KSEA 191740Z 1918/2024 22005KT P6SM OVC008
     FM191900 22005KT P6SM OVC010
     FM192000 25006KT P6SM SCT015 SCT050
     FM192100 28006KT P6SM FEW050 SCT250
     FM200000 32006KT P6SM FEW050 SCT120 BKN250
     FM201200 VRB03KT P6SM VCFG OVC004
     FM201900 33008KT P6SM FEW050 SCT250=



000
FTUS46 KSEW 191700
TAFPAE
TAF
KPAE 191740Z 1918/2018 VRB03KT P6SM OVC008
     FM191900 22005KT P6SM OVC010
     FM192000 26006KT P6SM SCT015 SCT050
     FM192100 31006KT P6SM FEW050 SCT250
     FM200300 VRB03KT P6SM SCT120 BKN250
     FM201200 VRB03KT 1/2SM FG VV002=



000
FTUS46 KSEW 191700
TAFOLM
TAF
KOLM 191740Z 1918/2018 VRB03KT P6SM OVC010
     FM192100 33006KT P6SM FEW020 SCT050 SCT250
     FM200300 VRB03KT P6SM SCT120 BKN250
     FM200900 VRB03KT P6SM BKN010 BKN250
     FM201200 VRB03KT P6SM OVC006=



000
FTUS46 KSEW 191600 AAC
TAFCLM
TAF AMD
KCLM 191623Z 1916/2012 32008KT P6SM OVC004
     FM191800 32010KT P6SM SCT250
     FM200000 29008KT P6SM SCT250
     FM201100 29008KT 1SM BR BKN001=



000
FTUS46 KSEW 191600 AAC
TAFCLM
TAF AMD
KCLM 191623Z 1916/2012 32008KT P6SM OVC004
     FM191800 32010KT P6SM SCT250
     FM200000 29008KT P6SM SCT250
     FM201100 29008KT 1SM BR BKN001=



000
FTUS46 KSEW 191600 AAB
TAFPAE
TAF AMD
KPAE 191622Z 1916/2012 VRB03KT 2SM BR OVC003
     FM191800 VRB03KT 5SM BR OVC006
     FM191900 34008KT P6SM FEW050 SCT250
     FM200600 VRB03KT P6SM SCT250=



000
FTUS46 KSEW 191500 AAB
TAFSEA
TAF AMD
KSEA 191519Z 1915/2018 22005KT P6SM VCFG OVC005
     FM191800 25006KT P6SM BKN008 BKN120
     FM191900 32008KT P6SM FEW050 SCT120
     FM200200 36008KT P6SM SCT250
     FM201300 VRB03KT P6SM OVC003
     FM201700 VRB03KT P6SM SCT005 SCT250=



000
FTUS46 KSEW 191500 AAB
TAFHQM
TAF AMD
KHQM 191509Z 1915/2012 26007KT 5SM BR OVC009
     FM191800 24014KT P6SM OVC015
     FM200000 24010KT P6SM OVC022
     FM200500 24008KT P6SM OVC006=



000
FTUS46 KSEW 191500 AAB
TAFOLM
TAF AMD
KOLM 191509Z 1915/2012 VRB03KT P6SM OVC011
     FM191800 VRB03KT P6SM BKN015 BKN120
     FM192000 36006KT P6SM SCT050 SCT120=



000
FTUS46 KSEW 191500 AAB
TAFCLM
TAF AMD
KCLM 191508Z 1915/2012 32008KT 4SM BR BKN003
     FM191700 32010KT P6SM SCT250
     FM200000 29008KT P6SM SCT250
     FM201100 29008KT 1SM BR BKN001=



000
FTUS46 KSEW 191400 AAA
TAFOLM
TAF AMD
KOLM 191421Z 1914/2012 VRB03KT P6SM OVC007
     FM191800 VRB03KT P6SM BKN010 BKN120
     FM192000 36006KT P6SM SCT050 SCT120=



000
FTUS46 KSEW 191400 AAB
TAFBLI
TAF AMD
KBLI 191420Z 1914/2012 17010KT 6SM BR BKN003
      TEMPO 1914/1916 4SM BR
     FM191700 17010KT P6SM BKN007
     FM191800 20008KT P6SM FEW050 SCT250
     FM200300 VRB03KT P6SM SCT250=



000
FTUS46 KSEW 191400 AAA
TAFPAE
TAF AMD
KPAE 191418Z 1914/2012 VRB03KT 1/4SM FG VV001
     FM191700 VRB03KT 1SM BR OVC004
     FM191800 VRB03KT 4SM BR BKN007 BKN120
     FM191900 34008KT P6SM FEW050 SCT250
     FM200600 VRB03KT P6SM SCT250=



000
FTUS46 KSEW 191400 AAA
TAFHQM
TAF AMD
KHQM 191417Z 1914/2012 26005KT 2SM BR OVC007
     FM191700 22007KT 5SM BR OVC009
     FM191900 24014KT P6SM OVC015
     FM200000 24010KT P6SM OVC022
     FM200500 24008KT P6SM OVC006=



000
FTUS46 KSEW 191400 AAA
TAFBFI
TAF AMD
KBFI 191417Z 1914/2012 VRB03KT P6SM VCFG OVC009
     FM191800 VRB03KT P6SM BKN012 BKN120
     FM191900 30008KT P6SM FEW050 SCT250
     FM200700 VRB03KT P6SM SCT250=



000
FTUS46 KSEW 191400 AAA
TAFCLM
TAF AMD
KCLM 191415Z 1914/2012 32008KT 1/2SM FG VV002
     FM191700 32010KT P6SM SCT250
     FM200000 29008KT P6SM SCT250
     FM201100 29008KT 1SM BR BKN001=



000
FTUS46 KSEW 191400 AAA
TAFCLM
TAF AMD
KCLM 191415Z 1914/2012 32008KT 1/2SM FG VV002
     FM191700 32010KT P6SM SCT250
     FM200000 29008KT P6SM SCT250
     FM201100 29008KT 1SM BR BKN001=



000
FTUS46 KSEW 191400 AAA
TAFSEA
TAF AMD
KSEA 191411Z 1914/2018 22005KT 6SM BR OVC004
      TEMPO 1914/1917 4SM BR
     FM191800 VRB03KT P6SM BKN007 BKN120
     FM191900 32008KT P6SM FEW050 SCT120
     FM200200 36008KT P6SM SCT250
     FM201300 VRB03KT P6SM OVC003
     FM201700 VRB03KT P6SM SCT005 SCT250=



000
FTUS46 KSEW 191200 AAA
TAFBLI
TAF AMD
KBLI 191220Z 1912/2012 17008KT P6SM SCT003 BKN250
      TEMPO 1912/1914 3SM BR BKN003 OVC250
     FM191400 18006KT P6SM OVC004
     FM191700 19005KT P6SM SCT006 SCT120
     FM192100 26006KT P6SM SCT250
     FM200300 VRB03KT P6SM SCT250=



000
FTUS46 KSEW 191200 AAA
TAFBLI
TAF AMD
KBLI 191220Z 1912/2012 17008KT P6SM SCT003 BKN250
      TEMPO 1912/1914 3SM BR BKN003 OVC250
     FM191400 18006KT P6SM OVC004
     FM191700 19005KT P6SM SCT006 SCT120
     FM192100 26006KT P6SM SCT250
     FM200300 VRB03KT P6SM SCT250=



000
FTUS46 KSEW 191100
TAFPAE
TAF
KPAE 191126Z 1912/2012 VRB03KT 1/4SM FG OVC001
     FM191600 VRB03KT 1SM BR BKN002
     FM191700 VRB03KT 4SM BR BKN004
     FM191800 VRB03KT P6SM SCT005 SCT250
     FM191900 34008KT P6SM SCT250
     FM200600 VRB03KT P6SM SCT250=



000
FTUS46 KSEW 191100
TAFBLI
TAF
KBLI 191126Z 1912/2012 18006KT P6SM SCT250
     FM192100 26006KT P6SM SCT250
     FM200300 VRB03KT P6SM SCT250=



000
FTUS46 KSEW 191100
TAFOLM
TAF
KOLM 191126Z 1912/2012 VRB03KT P6SM OVC006
     FM191800 VRB03KT P6SM SKC
     FM192000 36006KT P6SM FEW050 SCT250=



000
FTUS46 KSEW 191100
TAFBFI
TAF
KBFI 191126Z 1912/2012 VRB03KT P6SM SCT250
     FM191300 VRB03KT P6SM OVC007
     FM191700 VRB03KT P6SM SCT010 SCT250
      TEMPO 1917/1918 BKN010 BKN250
     FM191900 30008KT P6SM SCT250
     FM200700 VRB03KT P6SM SCT250=



000
FTUS46 KSEW 191100
TAFCLM
TAF
KCLM 191126Z 1912/2012 30006KT 1/2SM FG OVC001
     FM191600 VRB03KT 1SM BR BKN002
     FM191700 VRB03KT P6SM SCT250
     FM192200 29008KT P6SM SCT250
     FM201100 29008KT 1SM BR BKN001=



000
FTUS46 KSEW 191100
TAFSEA
TAF
KSEA 191126Z 1912/2018 20004KT P6SM OVC003
      TEMPO 1913/1916 4SM BR
     FM191700 VRB03KT P6SM SCT005 SCT250
      TEMPO 1917/1918 BKN005 BKN250
     FM191900 32008KT P6SM SCT250
     FM200200 36008KT P6SM SCT250
     FM201300 VRB03KT P6SM OVC003
     FM201700 VRB03KT P6SM SCT005 SCT250=



000
FTUS46 KSEW 191100
TAFHQM
TAF
KHQM 191126Z 1912/2012 27008KT 4SM BR OVC004
     FM191600 27008KT P6SM OVC007
     FM191900 27008KT P6SM OVC011
     FM192200 24014KT P6SM SCT025 SCT250
     FM200500 24008KT P6SM OVC006=



000
FTUS46 KSEW 190900 AAA
TAFSEA
TAF AMD
KSEA 190908Z 1909/2012 VRB03KT P6SM BKN120
     FM191300 VRB03KT P6SM OVC003
      TEMPO 1913/1916 4SM BR
     FM191700 VRB03KT P6SM SCT005 SCT250
     FM191900 32008KT P6SM SCT250
     FM200200 36008KT P6SM SCT250=



    US Dept of Commerce
    National Oceanic and Atmospheric Administration
    National Weather Service
    1325 East West Highway
    Silver Spring, MD 20910
    Page Author: NWS Internet Services Team
Disclaimer
Information Quality
Credits
Glossary
Privacy Policy
Freedom of Information Act (FOIA)
About Us
Career Opportunities